createdAt,value
2023-02-06T00:14:03.056Z,94.6
2023-02-06T00:34:03.112Z,95.3
2023-02-06T00:54:03.079Z,95.8
2023-02-06T01:14:03.131Z,96.5
2023-02-06T01:34:03.101Z,96.6
2023-02-06T01:54:03.116Z,96.2
2023-02-06T02:34:03.157Z,96.9
2023-02-06T02:54:03.164Z,97.4
2023-02-06T03:14:03.180Z,97.7
2023-02-06T03:34:03.207Z,98
2023-02-06T03:54:03.204Z,98.3
2023-02-06T04:14:03.230Z,98.1
2023-02-06T04:34:03.263Z,98
2023-02-06T04:54:03.270Z,97.9
2023-02-06T05:14:03.312Z,97.9
2023-02-06T05:34:03.282Z,98.3
2023-02-06T05:54:03.292Z,98.5
2023-02-06T06:14:03.329Z,98.7
2023-02-06T06:34:03.327Z,98.8
2023-02-06T06:54:03.362Z,99
2023-02-06T09:14:03.451Z,99.5
2023-02-06T10:34:03.481Z,98.9
2023-02-06T10:54:03.504Z,98.6
2023-02-06T11:54:03.543Z,96.1
2023-02-06T13:14:03.539Z,93.5
2023-02-06T13:54:03.548Z,92.7
2023-02-06T14:14:03.563Z,92.5
2023-02-06T14:34:03.632Z,93.2
2023-02-06T14:54:03.593Z,92.1
2023-02-06T15:14:03.566Z,91.2
2023-02-06T15:34:03.582Z,90.4
2023-02-06T15:54:03.583Z,90.3
2023-02-06T16:14:03.592Z,91.5
2023-02-06T16:54:03.604Z,93.7
2023-02-06T17:14:03.625Z,93.5
2023-02-06T17:34:03.602Z,92.3
2023-02-06T17:54:05.505Z,94.6
2023-02-06T18:14:03.632Z,95.7
2023-02-06T18:34:03.624Z,94.6
2023-02-06T18:54:03.651Z,95.5
2023-02-06T19:14:03.648Z,95.8
2023-02-06T19:34:03.660Z,96
2023-02-06T19:54:03.656Z,96.5
2023-02-06T20:14:03.672Z,96.6
2023-02-06T20:34:03.699Z,96.4
2023-02-06T20:54:03.696Z,96.6
2023-02-06T21:14:03.714Z,96.7
2023-02-06T21:34:03.715Z,97.5
2023-02-06T21:54:03.765Z,97.4
2023-02-06T22:14:03.811Z,97.4
2023-02-06T22:34:03.764Z,97
2023-02-06T22:54:03.772Z,96.9
2023-02-06T23:14:03.816Z,97
2023-02-06T23:34:03.874Z,97.3
2023-02-06T23:54:03.832Z,97.1
